createdAt,value
2023-03-17T00:01:55.164Z,99458.31
2023-03-17T00:04:25.225Z,99455.00
2023-03-17T00:06:53.360Z,99459.47
2023-03-17T00:09:22.449Z,99458.63
2023-03-17T00:11:50.893Z,99464.13
2023-03-17T00:14:19.854Z,99463.97
2023-03-17T00:16:52.866Z,99462.31
2023-03-17T00:19:33.555Z,99465.28
2023-03-17T00:22:02.742Z,99459.13
2023-03-17T00:24:30.295Z,99461.91
2023-03-17T00:26:58.246Z,99459.44
2023-03-17T00:29:26.963Z,99456.06
2023-03-17T00:31:57.032Z,99460.56
2023-03-17T00:34:24.912Z,99451.75
2023-03-17T00:36:53.581Z,99453.56
2023-03-17T00:39:25.548Z,99445.72
2023-03-17T00:41:55.384Z,99460.22
2023-03-17T00:44:23.009Z,99459.66
2023-03-17T00:46:51.826Z,99458.19
2023-03-17T00:49:22.644Z,99458.50
2023-03-17T00:51:50.941Z,99459.09
2023-03-17T00:54:20.836Z,99452.44
2023-03-17T00:56:51.043Z,99458.06
2023-03-17T00:59:20.957Z,99462.00
2023-03-17T01:01:49.249Z,99453.66
2023-03-17T01:04:17.176Z,99460.94
2023-03-17T01:06:47.984Z,99450.28
2023-03-17T01:09:18.644Z,99453.66
2023-03-17T01:11:47.128Z,99449.00
2023-03-17T01:14:16.056Z,99449.69
2023-03-17T01:16:44.834Z,99456.53
2023-03-17T01:19:13.490Z,99453.69
2023-03-17T01:21:42.607Z,99466.88
2023-03-17T01:24:11.864Z,99463.38
2023-03-17T01:26:40.592Z,99458.72
2023-03-17T01:29:09.011Z,99451.56
2023-03-17T01:31:37.496Z,99456.06
2023-03-17T01:34:06.437Z,99462.78
2023-03-17T01:36:34.472Z,99462.59
2023-03-17T01:39:03.461Z,99463.28
2023-03-17T01:41:34.965Z,99468.00
2023-03-17T01:44:02.703Z,99466.16
2023-03-17T01:46:34.201Z,99468.53
2023-03-17T01:49:14.559Z,99471.03
2023-03-17T01:51:51.477Z,99479.72
2023-03-17T01:54:28.452Z,99476.34
2023-03-17T01:57:01.166Z,99477.50
2023-03-17T01:59:35.060Z,99471.50
2023-03-17T02:02:06.717Z,99466.00
2023-03-17T02:04:35.579Z,99468.84
2023-03-17T02:07:05.269Z,99464.47
2023-03-17T02:09:34.448Z,99466.47
2023-03-17T02:12:04.007Z,99463.97
2023-03-17T02:14:31.624Z,99467.44
2023-03-17T02:16:59.191Z,99454.31
2023-03-17T02:19:26.921Z,99463.97
2023-03-17T02:21:56.898Z,99462.13
2023-03-17T02:24:44.746Z,99463.13
2023-03-17T02:27:16.060Z,99463.28
2023-03-17T02:29:46.469Z,99467.44
2023-03-17T02:32:17.813Z,99467.31
2023-03-17T02:34:49.014Z,99462.13
2023-03-17T02:37:17.656Z,99458.50
2023-03-17T02:39:45.920Z,99463.13
2023-03-17T02:42:14.647Z,99461.16
2023-03-17T02:44:42.164Z,99456.78
2023-03-17T02:47:09.770Z,99463.97
2023-03-17T02:49:38.827Z,99467.75
2023-03-17T02:52:07.426Z,99455.59
2023-03-17T02:54:35.161Z,99453.09
2023-03-17T02:57:02.768Z,99461.06
2023-03-17T02:59:30.727Z,99459.41
2023-03-17T03:01:58.374Z,99464.88
2023-03-17T03:04:26.353Z,99463.38
2023-03-17T03:06:54.976Z,99467.19
2023-03-17T03:09:22.563Z,99467.19
2023-03-17T03:11:50.511Z,99462.00
2023-03-17T03:14:18.050Z,99471.69
2023-03-17T03:16:45.614Z,99468.19
2023-03-17T03:19:13.204Z,99464.53
2023-03-17T03:21:40.752Z,99467.03
2023-03-17T03:24:09.440Z,99467.72
2023-03-17T03:26:37.331Z,99473.88
2023-03-17T03:29:06.106Z,99472.34
2023-03-17T03:31:33.748Z,99468.84
2023-03-17T03:34:01.368Z,99474.34
2023-03-17T03:36:28.958Z,99470.69
2023-03-17T03:38:56.653Z,99479.22
2023-03-17T03:41:24.298Z,99479.91
2023-03-17T03:43:52.255Z,99472.88
2023-03-17T03:46:19.851Z,99476.22
2023-03-17T03:48:47.393Z,99475.22
2023-03-17T03:51:14.948Z,99482.25
2023-03-17T03:53:42.473Z,99480.56
2023-03-17T03:56:10.461Z,99481.56
2023-03-17T03:58:38.010Z,99483.41
2023-03-17T04:01:06.653Z,99480.88
2023-03-17T04:03:34.319Z,99487.19
2023-03-17T04:06:02.081Z,99485.38
2023-03-17T04:08:30.004Z,99479.50
2023-03-17T04:10:58.166Z,99487.38
2023-03-17T04:13:25.813Z,99487.50
2023-03-17T04:15:53.389Z,99489.50
2023-03-17T04:18:21.211Z,99490.34
2023-03-17T04:20:48.795Z,99494.66
2023-03-17T04:23:16.347Z,99494.66
2023-03-17T04:25:43.925Z,99494.66
2023-03-17T04:28:12.291Z,99500.81
2023-03-17T04:30:39.868Z,99499.00
2023-03-17T04:33:08.117Z,99499.00
2023-03-17T04:35:35.810Z,99505.19
2023-03-17T04:38:03.945Z,99504.00
2023-03-17T04:40:32.097Z,99501.53
2023-03-17T04:43:01.838Z,99499.00
2023-03-17T04:45:30.748Z,99502.19
2023-03-17T04:47:58.360Z,99502.19
2023-03-17T04:50:26.597Z,99502.03
2023-03-17T04:52:54.157Z,99500.22
2023-03-17T04:55:21.755Z,99502.88
2023-03-17T04:57:49.639Z,99511.25
2023-03-17T05:00:18.279Z,99510.09
2023-03-17T05:02:46.447Z,99504.75
2023-03-17T05:05:14.263Z,99510.94
2023-03-17T05:07:41.956Z,99507.44
2023-03-17T05:10:10.380Z,99512.63
2023-03-17T05:12:37.965Z,99506.28
2023-03-17T05:15:06.731Z,99509.78
2023-03-17T05:17:34.293Z,99515.13
2023-03-17T05:20:01.914Z,99520.31
2023-03-17T05:22:29.679Z,99515.97
2023-03-17T05:24:57.275Z,99514.97
2023-03-17T05:27:24.875Z,99521.13
2023-03-17T05:29:52.777Z,99518.31
2023-03-17T05:32:21.073Z,99525.03
2023-03-17T05:34:48.666Z,99518.69
2023-03-17T05:37:16.727Z,99524.72
2023-03-17T05:39:44.611Z,99531.72
2023-03-17T05:42:12.212Z,99539.88
2023-03-17T05:44:39.862Z,99537.22
2023-03-17T05:47:08.580Z,99535.69
2023-03-17T05:49:36.205Z,99538.50
2023-03-17T05:52:03.733Z,99535.16
2023-03-17T05:54:31.291Z,99542.28
2023-03-17T05:56:58.896Z,99534.47
2023-03-17T05:59:26.607Z,99545.13
2023-03-17T06:01:54.158Z,99549.63
2023-03-17T06:04:21.986Z,99546.25
2023-03-17T06:06:49.549Z,99560.59
2023-03-17T06:09:18.156Z,99555.09
2023-03-17T06:11:45.951Z,99547.09
2023-03-17T06:14:13.548Z,99556.78
2023-03-17T06:16:41.333Z,99564.59
2023-03-17T06:19:08.930Z,99562.78
2023-03-17T06:21:37.064Z,99562.66
2023-03-17T06:24:04.976Z,99565.31
2023-03-17T06:26:33.086Z,99567.97
2023-03-17T06:29:01.523Z,99563.47
2023-03-17T06:31:29.226Z,99563.47
2023-03-17T06:33:57.605Z,99565.97
2023-03-17T06:36:25.191Z,99566.66
2023-03-17T06:38:52.815Z,99575.19
2023-03-17T06:41:20.318Z,99568.03
2023-03-17T06:43:47.891Z,99581.88
2023-03-17T06:46:15.869Z,99572.75
2023-03-17T06:48:43.727Z,99579.44
2023-03-17T06:51:11.624Z,99587.13
2023-03-17T06:53:39.218Z,99586.16
2023-03-17T06:56:12.540Z,99584.97
2023-03-17T06:58:45.640Z,99592.00
2023-03-17T07:01:14.629Z,99583.31
2023-03-17T07:03:42.293Z,99588.50
2023-03-17T07:06:09.912Z,99592.84
2023-03-17T07:08:37.580Z,99595.66
2023-03-17T07:11:05.276Z,99591.19
2023-03-17T07:13:35.685Z,99594.81
2023-03-17T07:16:04.264Z,99598.47
2023-03-17T07:18:34.587Z,99600.00
2023-03-17T07:21:02.536Z,99604.34
2023-03-17T07:23:30.581Z,99608.53
2023-03-17T07:25:58.159Z,99609.06
2023-03-17T07:28:25.778Z,99613.09
2023-03-17T07:30:53.496Z,99614.50
2023-03-17T07:33:21.351Z,99621.63
2023-03-17T07:35:49.736Z,99625.16
2023-03-17T07:38:19.387Z,99625.16
2023-03-17T07:40:49.071Z,99627.66
2023-03-17T07:43:17.808Z,99622.16
2023-03-17T07:45:46.824Z,99626.53
2023-03-17T07:48:14.893Z,99624.53
2023-03-17T07:50:43.159Z,99631.56
2023-03-17T07:53:11.398Z,99629.56
2023-03-17T07:55:39.069Z,99642.88
2023-03-17T07:58:07.626Z,99639.25
2023-03-17T08:00:35.589Z,99638.94
2023-03-17T08:03:10.128Z,99642.66
2023-03-17T08:05:38.460Z,99651.41
2023-03-17T08:08:06.809Z,99642.59
2023-03-17T08:10:35.041Z,99649.84
2023-03-17T08:13:03.162Z,99654.56
2023-03-17T08:15:31.416Z,99658.25
2023-03-17T08:17:59.683Z,99651.28
2023-03-17T08:20:27.326Z,99656.66
2023-03-17T08:22:56.341Z,99664.91
2023-03-17T08:25:24.738Z,99661.25
2023-03-17T08:27:52.730Z,99669.31
2023-03-17T08:30:23.493Z,99668.34
2023-03-17T08:32:51.245Z,99671.41
2023-03-17T08:35:19.759Z,99670.47
2023-03-17T08:37:47.831Z,99672.03
2023-03-17T08:40:18.093Z,99664.03
2023-03-17T08:42:47.306Z,99667.72
2023-03-17T08:45:18.453Z,99678.00
2023-03-17T08:47:47.847Z,99683.00
2023-03-17T08:50:22.125Z,99678.63
2023-03-17T08:52:51.825Z,99679.44
2023-03-17T08:55:20.160Z,99688.56
2023-03-17T08:57:47.865Z,99692.22
2023-03-17T09:00:20.455Z,99682.47
2023-03-17T09:02:48.676Z,99696.28
2023-03-17T09:05:17.261Z,99698.13
2023-03-17T09:07:45.177Z,99699.44
2023-03-17T09:10:14.867Z,99701.44
2023-03-17T09:12:42.956Z,99703.56
2023-03-17T09:15:12.421Z,99710.75
2023-03-17T09:17:41.371Z,99712.41
2023-03-17T09:20:10.033Z,99713.13
2023-03-17T09:22:38.152Z,99708.78
2023-03-17T09:25:06.093Z,99711.78
2023-03-17T09:27:33.795Z,99715.16
2023-03-17T09:30:01.539Z,99715.28
2023-03-17T09:32:29.159Z,99710.97
2023-03-17T09:34:57.728Z,99713.50
2023-03-17T09:37:25.480Z,99720.97
2023-03-17T09:39:53.093Z,99723.47
2023-03-17T09:42:41.987Z,99719.66
2023-03-17T09:45:31.592Z,99726.03
2023-03-17T09:48:20.864Z,99715.19
2023-03-17T09:51:03.105Z,99729.72
2023-03-17T09:53:36.753Z,99727.41
2023-03-17T09:56:16.599Z,99726.25
2023-03-17T09:58:58.294Z,99734.31
2023-03-17T10:01:26.625Z,99730.31
2023-03-17T10:03:54.547Z,99737.00
2023-03-17T10:06:33.685Z,99737.72
2023-03-17T10:09:10.601Z,99732.19
2023-03-17T10:11:38.887Z,99733.59
2023-03-17T10:14:46.268Z,99735.66
2023-03-17T10:17:23.776Z,99725.75
2023-03-17T10:20:00.313Z,99726.91
2023-03-17T10:22:35.260Z,99728.47
2023-03-17T10:25:10.186Z,99734.94
2023-03-17T10:27:38.817Z,99743.84
2023-03-17T10:30:18.929Z,99735.22
2023-03-17T10:32:46.937Z,99736.31
2023-03-17T10:35:17.296Z,99742.03
2023-03-17T10:37:47.672Z,99733.81
2023-03-17T10:40:21.253Z,99733.97
2023-03-17T10:42:53.350Z,99739.28
2023-03-17T10:45:32.542Z,99741.16
2023-03-17T10:48:02.718Z,99748.44
2023-03-17T10:50:33.564Z,99746.41
2023-03-17T10:53:06.107Z,99753.19
2023-03-17T10:55:49.897Z,99757.28
2023-03-17T10:58:19.003Z,99751.84
2023-03-17T11:01:05.833Z,99756.00
2023-03-17T11:03:38.991Z,99750.00
2023-03-17T11:06:13.547Z,99762.47
2023-03-17T11:08:46.967Z,99757.31
2023-03-17T11:11:27.968Z,99760.91
2023-03-17T11:14:27.192Z,99768.28
2023-03-17T11:16:57.631Z,99763.38
2023-03-17T11:19:33.884Z,99768.47
2023-03-17T11:22:07.227Z,99761.22
2023-03-17T11:24:46.171Z,99756.34
2023-03-17T11:27:35.098Z,99760.66
2023-03-17T11:30:17.621Z,99765.66
2023-03-17T11:33:00.173Z,99769.03
2023-03-17T11:35:46.873Z,99769.84
2023-03-17T11:38:14.466Z,99768.91
2023-03-17T11:41:05.020Z,99771.56
2023-03-17T11:43:50.941Z,99772.81
2023-03-17T11:46:34.237Z,99777.91
2023-03-17T11:49:24.293Z,99775.56
2023-03-17T11:52:11.225Z,99776.94
2023-03-17T11:54:55.706Z,99779.31
2023-03-17T11:57:36.069Z,99778.16
2023-03-17T12:00:23.824Z,99780.63
2023-03-17T12:03:29.833Z,99791.50
2023-03-17T12:06:05.500Z,99787.81
2023-03-17T12:08:46.926Z,99788.75
2023-03-17T12:11:20.912Z,99793.22
2023-03-17T12:14:02.399Z,99782.38
2023-03-17T12:16:44.792Z,99784.63
2023-03-17T12:19:25.415Z,99788.03
2023-03-17T12:21:55.732Z,99793.63
2023-03-17T12:24:31.602Z,99784.28
2023-03-17T12:27:22.512Z,99794.06
2023-03-17T12:29:59.573Z,99796.75
2023-03-17T12:32:48.002Z,99795.22
2023-03-17T12:35:32.429Z,99789.25
2023-03-17T12:38:04.977Z,99797.34
2023-03-17T12:40:34.930Z,99793.38
2023-03-17T12:43:08.762Z,99796.81
2023-03-17T12:45:48.829Z,99803.88
2023-03-17T12:48:16.747Z,99802.31
2023-03-17T12:51:09.128Z,99801.38
2023-03-17T12:53:46.653Z,99800.56
2023-03-17T12:56:26.530Z,99805.66
2023-03-17T12:59:00.063Z,99802.09
2023-03-17T13:01:46.075Z,99802.09
2023-03-17T13:04:42.094Z,99798.94
2023-03-17T13:07:19.325Z,99799.72
2023-03-17T13:09:49.813Z,99797.03
2023-03-17T13:12:44.522Z,99798.69
2023-03-17T13:15:22.979Z,99795.75
2023-03-17T13:17:52.410Z,99792.03
2023-03-17T13:20:21.031Z,99796.66
2023-03-17T13:23:01.023Z,99792.16
2023-03-17T13:25:32.523Z,99791.50
2023-03-17T13:28:22.523Z,99798.97
2023-03-17T13:31:11.436Z,99786.91
2023-03-17T13:33:46.232Z,99783.97
2023-03-17T13:37:00.478Z,99791.97
2023-03-17T13:39:28.365Z,99791.97
2023-03-17T13:42:26.707Z,99784.03
2023-03-17T13:45:05.680Z,99791.66
2023-03-17T13:47:42.331Z,99793.25
2023-03-17T13:50:29.886Z,99788.56
2023-03-17T13:53:07.669Z,99786.72
2023-03-17T13:55:38.939Z,99783.28
2023-03-17T13:58:08.268Z,99784.81
2023-03-17T14:00:40.604Z,99788.88
2023-03-17T14:03:36.567Z,99787.59
2023-03-17T14:06:08.858Z,99793.03
2023-03-17T14:08:42.683Z,99795.94
2023-03-17T14:11:35.214Z,99790.50
2023-03-17T14:14:31.476Z,99797.09
2023-03-17T14:17:12.276Z,99790.38
2023-03-17T14:19:41.896Z,99783.88
2023-03-17T14:22:24.162Z,99782.31
2023-03-17T14:24:59.414Z,99781.34
2023-03-17T14:27:30.730Z,99787.19
2023-03-17T14:30:06.708Z,99787.06
2023-03-17T14:32:34.499Z,99788.03
2023-03-17T14:35:02.087Z,99796.09
2023-03-17T14:37:29.713Z,99778.22
2023-03-17T14:39:59.183Z,99784.28
2023-03-17T14:42:29.826Z,99788.69
2023-03-17T14:45:33.024Z,99791.25
2023-03-17T14:48:01.919Z,99785.72
2023-03-17T14:50:33.712Z,99783.97
2023-03-17T14:53:01.629Z,99786.06
2023-03-17T14:55:39.934Z,99783.13
2023-03-17T14:58:23.625Z,99792.56
2023-03-17T15:01:04.568Z,99791.81
2023-03-17T15:03:34.485Z,99789.66
2023-03-17T15:06:25.781Z,99786.50
2023-03-17T15:08:54.154Z,99789.50
2023-03-17T15:11:25.946Z,99790.88
2023-03-17T15:14:03.264Z,99781.66
2023-03-17T15:16:36.526Z,99788.19
2023-03-17T15:19:08.355Z,99787.22
2023-03-17T15:21:42.296Z,99783.00
2023-03-17T15:24:38.965Z,99780.13
2023-03-17T15:27:15.116Z,99775.28
2023-03-17T15:29:42.749Z,99779.78
2023-03-17T15:32:20.394Z,99780.97
2023-03-17T15:34:50.410Z,99783.50
2023-03-17T15:37:22.643Z,99778.16
2023-03-17T15:39:51.611Z,99776.50
2023-03-17T15:42:21.002Z,99782.19
2023-03-17T15:44:48.689Z,99791.09
2023-03-17T15:47:19.616Z,99789.22
2023-03-17T15:49:49.056Z,99786.00
2023-03-17T15:52:25.997Z,99799.81
2023-03-17T15:54:57.514Z,99791.94
2023-03-17T15:57:27.213Z,99787.41
2023-03-17T15:59:54.851Z,99787.72
2023-03-17T16:02:27.670Z,99791.66
2023-03-17T16:04:55.815Z,99795.34
2023-03-17T16:07:23.883Z,99800.69
2023-03-17T16:09:52.135Z,99801.69
2023-03-17T16:12:19.873Z,99805.50
2023-03-17T16:14:47.907Z,99810.88
2023-03-17T16:17:29.526Z,99804.69
2023-03-17T16:19:57.875Z,99807.31
2023-03-17T16:22:42.767Z,99808.63
2023-03-17T16:25:28.017Z,99805.56
2023-03-17T16:27:58.094Z,99806.28
2023-03-17T16:30:29.842Z,99810.47
2023-03-17T16:33:02.356Z,99813.66
2023-03-17T16:35:30.192Z,99814.69
2023-03-17T16:37:57.828Z,99812.53
2023-03-17T16:40:30.685Z,99819.13
2023-03-17T16:42:58.374Z,99816.81
2023-03-17T16:45:33.052Z,99816.00
2023-03-17T16:48:03.593Z,99821.03
2023-03-17T16:50:33.459Z,99822.03
2023-03-17T16:53:01.273Z,99823.19
2023-03-17T16:55:29.412Z,99826.88
2023-03-17T16:58:05.823Z,99829.91
2023-03-17T17:00:33.834Z,99833.13
2023-03-17T17:03:01.909Z,99832.25
2023-03-17T17:05:31.288Z,99831.91
2023-03-17T17:07:59.581Z,99832.22
2023-03-17T17:10:29.619Z,99837.41
2023-03-17T17:12:57.298Z,99841.41
2023-03-17T17:15:25.426Z,99836.06
2023-03-17T17:18:02.546Z,99837.59
2023-03-17T17:20:37.677Z,99849.81
2023-03-17T17:23:07.227Z,99853.31
2023-03-17T17:25:34.831Z,99856.00
2023-03-17T17:28:02.405Z,99852.31
2023-03-17T17:30:30.807Z,99858.16
2023-03-17T17:33:00.272Z,99858.50
2023-03-17T17:35:32.512Z,99860.19
2023-03-17T17:38:02.060Z,99856.19
2023-03-17T17:40:31.111Z,99863.53
2023-03-17T17:42:58.872Z,99866.50
2023-03-17T17:45:26.545Z,99865.03
2023-03-17T17:47:54.139Z,99872.50
2023-03-17T17:50:25.744Z,99874.00
2023-03-17T17:52:53.651Z,99873.16
2023-03-17T17:55:21.318Z,99873.47
2023-03-17T17:57:50.823Z,99879.16
2023-03-17T18:00:19.964Z,99882.28
2023-03-17T18:02:47.620Z,99879.88
2023-03-17T18:05:15.353Z,99879.22
2023-03-17T18:07:43.034Z,99879.53
2023-03-17T18:10:17.777Z,99883.69
2023-03-17T18:12:45.561Z,99879.97
2023-03-17T18:15:13.180Z,99882.44
2023-03-17T18:17:42.972Z,99892.28
2023-03-17T18:20:14.577Z,99883.41
2023-03-17T18:22:42.285Z,99888.75
2023-03-17T18:25:12.038Z,99895.09
2023-03-17T18:27:40.174Z,99896.94
2023-03-17T18:30:10.552Z,99903.28
2023-03-17T18:32:39.120Z,99908.13
2023-03-17T18:35:11.896Z,99911.09
2023-03-17T18:37:39.753Z,99919.56
2023-03-17T18:40:18.758Z,99911.72
2023-03-17T18:42:47.614Z,99908.81
2023-03-17T18:45:15.616Z,99905.75
2023-03-17T18:47:43.402Z,99910.75
2023-03-17T18:50:13.920Z,99920.72
2023-03-17T18:52:42.903Z,99922.47
2023-03-17T18:55:12.155Z,99917.59
2023-03-17T18:57:43.110Z,99920.41
2023-03-17T19:00:16.374Z,99919.59
2023-03-17T19:02:44.244Z,99921.41
2023-03-17T19:05:12.887Z,99931.09
2023-03-17T19:07:41.159Z,99931.09
2023-03-17T19:13:19.105Z,99937.75
2023-03-17T19:15:47.083Z,99941.25
2023-03-17T19:18:14.613Z,99939.09
2023-03-17T19:20:43.098Z,99937.31
2023-03-17T19:23:10.662Z,99943.47
2023-03-17T19:25:38.659Z,99940.59
2023-03-17T19:28:06.415Z,99945.53
2023-03-17T19:30:34.490Z,99944.00
2023-03-17T19:33:02.303Z,99950.34
2023-03-17T19:35:30.120Z,99949.50
2023-03-17T19:37:57.996Z,99951.47
2023-03-17T19:40:26.040Z,99955.97
2023-03-17T19:42:53.616Z,99965.81
2023-03-17T19:45:21.230Z,99959.66
2023-03-17T19:47:48.889Z,99963.16
2023-03-17T19:50:17.034Z,99959.47
2023-03-17T19:52:46.222Z,99961.16
2023-03-17T19:55:13.804Z,99966.47
2023-03-17T19:57:41.494Z,99966.34
2023-03-17T20:00:11.052Z,99973.53
2023-03-17T20:02:39.331Z,99966.34
2023-03-17T20:05:07.402Z,99964.53
2023-03-17T20:07:35.199Z,99968.03
2023-03-17T20:10:04.476Z,99968.19
2023-03-17T20:12:32.985Z,99974.38
2023-03-17T20:15:01.608Z,99964.69
2023-03-17T20:17:29.323Z,99966.47
2023-03-17T20:19:56.875Z,99965.53
2023-03-17T20:22:24.681Z,99975.38
2023-03-17T20:24:52.217Z,99963.69
2023-03-17T20:27:20.438Z,99974.38
2023-03-17T20:29:48.669Z,99976.03
2023-03-17T20:32:17.410Z,99969.03
2023-03-17T20:34:45.358Z,99974.19
2023-03-17T20:37:14.242Z,99972.53
2023-03-17T20:39:42.461Z,99972.00
2023-03-17T20:42:14.601Z,99976.63
2023-03-17T20:44:43.016Z,99974.41
2023-03-17T20:47:10.627Z,99974.59
2023-03-17T20:49:38.321Z,99970.38
2023-03-17T20:52:06.804Z,99966.19
2023-03-17T20:54:34.489Z,99973.78
2023-03-17T20:57:02.070Z,99968.91
2023-03-17T20:59:32.397Z,99973.00
2023-03-17T21:02:00.679Z,99969.94
2023-03-17T21:04:28.283Z,99975.72
2023-03-17T21:06:55.961Z,99978.66
2023-03-17T21:09:23.644Z,99978.84
2023-03-17T21:11:51.469Z,99986.13
2023-03-17T21:14:19.035Z,99983.75
2023-03-17T21:16:47.406Z,99996.81
2023-03-17T21:19:16.613Z,99986.84
2023-03-17T21:21:44.711Z,99992.84
2023-03-17T21:24:25.188Z,99984.56
2023-03-17T21:26:53.045Z,99987.09
2023-03-17T21:29:21.519Z,99982.59
2023-03-17T21:31:49.721Z,99985.41
2023-03-17T21:34:17.955Z,99980.91
2023-03-17T21:36:45.704Z,99989.88
2023-03-17T21:39:13.414Z,99992.72
2023-03-17T21:41:41.155Z,99990.06
2023-03-17T21:44:08.766Z,99994.56
2023-03-17T21:46:36.347Z,100000.72
2023-03-17T21:49:04.230Z,99997.06
2023-03-17T21:51:32.829Z,99993.56
2023-03-17T21:54:01.248Z,99997.88
2023-03-17T21:56:29.725Z,99991.72
2023-03-17T21:58:58.009Z,99995.09
2023-03-17T22:01:26.226Z,100004.78
2023-03-17T22:03:54.049Z,99998.44
2023-03-17T22:06:21.678Z,100002.25
2023-03-17T22:08:50.741Z,99998.06
2023-03-17T22:11:19.660Z,99994.69
2023-03-17T22:13:47.489Z,99992.47
2023-03-17T22:16:16.655Z,100001.59
2023-03-17T22:18:44.631Z,99994.72
2023-03-17T22:21:12.332Z,99997.69
2023-03-17T22:23:42.268Z,99997.69
2023-03-17T22:26:13.540Z,100006.69
2023-03-17T22:28:42.049Z,100002.47
2023-03-17T22:31:15.032Z,100004.47
2023-03-17T22:33:43.372Z,100010.75
2023-03-17T22:36:11.629Z,100002.09
2023-03-17T22:38:39.377Z,100004.59
2023-03-17T22:41:13.725Z,100003.59
2023-03-17T22:43:42.396Z,100007.13
2023-03-17T22:46:11.218Z,100002.91
2023-03-17T22:48:40.979Z,100003.03
2023-03-17T22:51:12.381Z,100003.91
2023-03-17T22:53:40.984Z,100005.84
2023-03-17T22:56:09.998Z,100002.34
2023-03-17T22:58:37.735Z,100009.50
2023-03-17T23:01:06.625Z,100005.00
2023-03-17T23:03:35.340Z,100011.31
2023-03-17T23:06:04.065Z,100011.47
2023-03-17T23:08:35.391Z,100013.13
2023-03-17T23:11:08.153Z,100015.81
2023-03-17T23:13:36.156Z,100018.47
2023-03-17T23:16:04.853Z,100014.69
2023-03-17T23:18:32.705Z,100013.84
2023-03-17T23:21:01.704Z,100010.34
2023-03-17T23:23:29.595Z,100013.97
2023-03-17T23:25:57.537Z,100014.56
2023-03-17T23:28:25.916Z,100014.88
2023-03-17T23:30:54.206Z,100020.31
2023-03-17T23:33:23.030Z,100024.00
2023-03-17T23:35:51.721Z,100021.16
2023-03-17T23:38:21.496Z,100020.31
2023-03-17T23:40:50.055Z,100019.63
2023-03-17T23:43:17.702Z,100024.28
2023-03-17T23:45:45.580Z,100019.94
2023-03-17T23:48:13.191Z,100015.56
2023-03-17T23:50:41.614Z,100020.78
2023-03-17T23:53:11.596Z,100018.94
2023-03-17T23:55:40.156Z,100023.56
2023-03-17T23:58:07.862Z,100023.72
